»·PEaware :: N3891R KSBP-KSBD

N3891R :: KSBP-KSBD

FLIGHT INFORMATION

Flight Status: Arrived
Operator: Privately registered:
United States
More flights under this callsign
Pilot: Markus B. (22479)
Aircraft: BEECH AIRCRAFT BARON
(BE58)
More flights by this aircraft type
Origin: KSBP San Luis Co Regl
United States
Destination: KSBD San Bernardino Intl
United States
More flights between these airports :: More routes between these airports
Route: +RZS V186 PDZ
File this flight plan on PilotEdge
Remarks: SBAP51
Altitude:
(Current/Filed)
7,000ft
Speed:
(Current/Filed)
170kts
Departed: 03-Oct-20 07:32 AM
Arrived: 03-Oct-20 08:40 AM
Distance/Time
Traveled:
182nm/1:08
Distance/Time
To Go:
Arrived

Flight Plot

Page will automatically refresh every two minutes.


Map Options




Map Legend


Flown Route
Filed Route
Departure Airport
Arrival Airport
Navaid (VOR, NDB)
Fix

Horizontal Profiles

Position Reports

Time Latitude Longitude Heading Altitude Ground
Speed
03-Oct-20 07:15 35.238558 -120.639867 201 216ft 0kts
03-Oct-20 07:16 35.238558 -120.639867 201 216ft 0kts
03-Oct-20 07:17 35.238558 -120.639867 201 216ft 0kts
03-Oct-20 07:18 35.238558 -120.639867 201 216ft 0kts
03-Oct-20 07:19 35.238558 -120.639867 201 216ft 0kts
03-Oct-20 07:20 35.238558 -120.639867 201 216ft 0kts
03-Oct-20 07:21 35.238558 -120.639867 201 216ft 0kts
03-Oct-20 07:22 35.238558 -120.639867 201 216ft 0kts
03-Oct-20 07:23 35.238558 -120.639867 201 216ft 0kts
03-Oct-20 07:24 35.238558 -120.639867 201 216ft 0kts
03-Oct-20 07:25 35.238558 -120.639867 201 216ft 0kts
03-Oct-20 07:25 35.238558 -120.639867 201 216ft 0kts
03-Oct-20 07:26 35.238558 -120.639867 201 216ft 0kts
03-Oct-20 07:28 35.238558 -120.639867 201 216ft 0kts
03-Oct-20 07:28 35.236643 -120.637868 123 216ft 23kts
03-Oct-20 07:29 35.234186 -120.633872 195 216ft 0kts
03-Oct-20 07:30 35.233936 -120.634974 292 216ft 31kts
03-Oct-20 07:31 35.248364 -120.661142 304 1712ft 92kts
03-Oct-20 07:32 35.263767 -120.688082 303 3394ft 102kts
03-Oct-20 07:33 35.249184 -120.676563 134 4892ft 94kts
03-Oct-20 07:34 35.224072 -120.643908 132 5211ft 168kts
03-Oct-20 07:35 35.189356 -120.599347 133 5214ft 170kts
03-Oct-20 07:36 35.162898 -120.565331 131 6875ft 123kts
03-Oct-20 07:37 35.135119 -120.528510 133 7161ft 168kts
03-Oct-20 07:38 35.100551 -120.485901 134 7102ft 180kts
03-Oct-20 07:39 35.065117 -120.442649 134 7104ft 180kts
03-Oct-20 07:40 35.029704 -120.399435 134 7104ft 180kts
03-Oct-20 07:41 34.994213 -120.356178 134 7104ft 180kts
03-Oct-20 07:42 34.958769 -120.313038 135 7103ft 180kts
03-Oct-20 07:43 34.923279 -120.269895 135 7103ft 180kts
03-Oct-20 07:44 34.887678 -120.226671 135 7103ft 180kts
03-Oct-20 07:45 34.852120 -120.183555 135 7103ft 180kts
03-Oct-20 07:46 34.816596 -120.140536 135 7103ft 180kts
03-Oct-20 07:47 34.780974 -120.097456 135 7103ft 180kts
03-Oct-20 07:48 34.745388 -120.054474 135 7103ft 180kts
03-Oct-20 07:49 34.709420 -120.011086 135 7103ft 180kts
03-Oct-20 07:50 34.673610 -119.967946 135 7103ft 180kts
03-Oct-20 07:51 34.637634 -119.924662 135 7103ft 180kts
03-Oct-20 07:52 34.601936 -119.881768 135 7103ft 180kts
03-Oct-20 07:53 34.566241 -119.838931 135 7103ft 180kts
03-Oct-20 07:54 34.530620 -119.796238 135 7103ft 180kts
03-Oct-20 07:55 34.506068 -119.744865 103 7115ft 184kts
03-Oct-20 07:56 34.494920 -119.683522 101 7134ft 185kts
03-Oct-20 07:57 34.468065 -119.631825 134 7084ft 188kts
03-Oct-20 07:58 34.431695 -119.586715 134 7101ft 187kts
03-Oct-20 07:59 34.395419 -119.541717 134 7104ft 187kts
03-Oct-20 08:00 34.359072 -119.496674 134 7104ft 187kts
03-Oct-20 08:01 34.331013 -119.443733 122 7113ft 186kts
03-Oct-20 08:02 34.320949 -119.382681 96 7127ft 186kts
03-Oct-20 08:03 34.314412 -119.320216 97 7105ft 187kts
03-Oct-20 08:04 34.307764 -119.257873 97 7103ft 187kts
03-Oct-20 08:05 34.301063 -119.195299 97 7103ft 187kts
03-Oct-20 08:06 34.294344 -119.132855 97 7103ft 187kts
03-Oct-20 08:07 34.287593 -119.070427 97 7103ft 187kts
03-Oct-20 08:08 34.280825 -119.008133 97 7103ft 187kts
03-Oct-20 08:09 34.274015 -118.945765 97 7103ft 187kts
03-Oct-20 08:10 34.267148 -118.883164 97 7103ft 187kts
03-Oct-20 08:11 34.260284 -118.820897 97 7094ft 187kts
03-Oct-20 08:12 34.253356 -118.758341 97 7075ft 187kts
03-Oct-20 08:13 34.246402 -118.695850 97 7076ft 187kts
03-Oct-20 08:14 34.239409 -118.633303 97 7076ft 187kts
03-Oct-20 08:15 34.232424 -118.571122 97 7076ft 187kts
03-Oct-20 08:16 34.225221 -118.507438 97 6671ft 198kts
03-Oct-20 08:17 34.208571 -118.444395 110 5709ft 193kts
03-Oct-20 08:18 34.190086 -118.384962 110 5079ft 185kts
03-Oct-20 08:19 34.171607 -118.326097 110 5068ft 188kts
03-Oct-20 08:20 34.152963 -118.266788 110 5063ft 189kts
03-Oct-20 08:21 34.134282 -118.207465 110 5063ft 189kts
03-Oct-20 08:22 34.115507 -118.147977 110 5063ft 189kts
03-Oct-20 08:23 34.096771 -118.088715 110 5063ft 189kts
03-Oct-20 08:24 34.077993 -118.029457 110 5063ft 189kts
03-Oct-20 08:25 34.059224 -117.970303 110 5081ft 189kts
03-Oct-20 08:26 34.040430 -117.911201 110 5081ft 189kts
03-Oct-20 08:27 34.030184 -117.849865 91 5068ft 190kts
03-Oct-20 08:28 34.028795 -117.785015 91 4588ft 196kts
03-Oct-20 08:29 34.027520 -117.721653 91 4095ft 181kts
03-Oct-20 08:30 34.026291 -117.660933 91 4081ft 180kts
03-Oct-20 08:31 34.025073 -117.600372 91 4081ft 180kts
03-Oct-20 08:32 34.023868 -117.539866 91 4081ft 180kts
03-Oct-20 08:33 34.026708 -117.479687 77 4098ft 179kts
03-Oct-20 08:34 34.038341 -117.420757 73 4083ft 180kts
03-Oct-20 08:35 34.051442 -117.363527 74 3542ft 174kts
03-Oct-20 08:36 34.069579 -117.310059 55 2778ft 169kts
03-Oct-20 08:37 34.084559 -117.271762 74 1791ft 95kts
03-Oct-20 08:38 34.092220 -117.245517 69 1092ft 47kts
03-Oct-20 08:39 34.094859 -117.240414 35 1102ft 0kts
03-Oct-20 08:40 34.095184 -117.240224 8 1103ft 7kts
03-Oct-20 08:41 34.097040 -117.235215 72 1119ft 28kts
03-Oct-20 08:42 34.099435 -117.227122 69 1138ft 21kts

Navigation Log

Ident Type
Flight plan parsing failed, navigation log unavailable